Time;durP1;ratioP1;P1;durP2;ratioP2;P2;SDS_P1;SDS_P2;PMS_P1;PMS_P2;Temp;Humidity;BMP_temperature;BMP_pressure;BME280_temperature;BME280_humidity;BME280_pressure;Samples;Min_cycle;Max_cycle;Signal;HPM_P1;HPM_P2
2023/01/20 00:00:12;;;;;;;12.43;4.53;;;0.20;99.90;;;;;;5077292;28;20032;-80
2023/01/20 00:02:38;;;;;;;14.50;4.53;;;0.30;99.90;;;;;;5077302;28;20488;-81
2023/01/20 00:05:05;;;;;;;9.73;3.67;;;0.30;99.90;;;;;;5073945;28;20049;-80
2023/01/20 00:07:33;;;;;;;11.77;4.35;;;0.40;99.90;;;;;;5071082;28;20048;-81
2023/01/20 00:09:59;;;;;;;12.77;4.35;;;0.50;99.90;;;;;;5074048;28;20052;-80
2023/01/20 00:12:25;;;;;;;14.80;4.28;;;0.50;99.90;;;;;;5061057;28;20477;-80
2023/01/20 00:14:50;;;;;;;11.18;4.32;;;0.50;99.90;;;;;;5059321;28;20044;-80
2023/01/20 00:17:16;;;;;;;13.25;4.07;;;0.60;99.90;;;;;;5059996;28;20040;-80
2023/01/20 00:19:42;;;;;;;12.18;3.95;;;0.50;99.90;;;;;;5060586;28;20401;-81
2023/01/20 00:22:08;;;;;;;14.65;5.15;;;0.60;99.90;;;;;;5053947;28;20075;-81
2023/01/20 00:24:33;;;;;;;13.38;4.18;;;0.60;99.90;;;;;;5054977;28;20045;-78
2023/01/20 00:26:59;;;;;;;12.85;4.50;;;0.60;99.90;;;;;;5071508;28;20052;-81
2023/01/20 00:29:25;;;;;;;13.65;4.80;;;0.60;99.90;;;;;;5065894;28;20444;-81
2023/01/20 00:31:50;;;;;;;14.50;5.05;;;0.60;99.90;;;;;;5061175;28;20045;-81
2023/01/20 00:34:16;;;;;;;15.93;5.25;;;0.70;99.90;;;;;;5056429;28;20549;-80
2023/01/20 00:36:42;;;;;;;13.75;4.90;;;0.70;99.90;;;;;;5056767;28;20049;-80
2023/01/20 00:39:07;;;;;;;15.40;4.93;;;0.70;99.90;;;;;;5055928;28;20485;-81
2023/01/20 00:41:33;;;;;;;21.15;6.10;;;0.70;99.90;;;;;;5057265;28;20044;-80
2023/01/20 00:43:59;;;;;;;15.65;6.22;;;0.70;99.90;;;;;;5058362;28;20048;-81
2023/01/20 00:46:25;;;;;;;17.92;5.90;;;0.70;99.90;;;;;;5056910;28;20373;-80
2023/01/20 00:48:50;;;;;;;17.38;6.28;;;0.70;99.90;;;;;;5056879;28;20057;-81
2023/01/20 00:51:16;;;;;;;21.05;7.55;;;0.70;99.90;;;;;;5056533;28;20041;-79
2023/01/20 00:53:42;;;;;;;18.20;6.85;;;0.70;99.90;;;;;;5056125;28;20440;-80
2023/01/20 00:56:08;;;;;;;21.63;6.53;;;0.70;99.90;;;;;;5038966;28;20103;-81
2023/01/20 00:58:34;;;;;;;19.90;7.25;;;0.80;99.90;;;;;;5088784;28;20082;-79
2023/01/20 01:01:00;;;;;;;20.33;7.18;;;0.80;99.90;;;;;;5056204;28;20099;-81
2023/01/20 01:03:29;;;;;;;24.15;7.88;;;0.70;99.90;;;;;;5055074;28;20049;-82
2023/01/20 01:06:06;;;;;;;21.80;7.68;;;0.70;99.90;;;;;;5054666;28;20049;-81
2023/01/20 01:08:33;;;;;;;22.23;8.45;;;0.80;99.90;;;;;;5055386;28;20119;-82
2023/01/20 01:10:59;;;;;;;;;;;0.90;99.90;;;;;;5091060;28;20060;-82
2023/01/20 01:13:25;;;;;;;24.65;7.93;;;0.70;99.90;;;;;;5055884;28;20372;-82
2023/01/20 01:15:50;;;;;;;24.95;8.55;;;0.80;99.90;;;;;;5056939;28;20091;-84
2023/01/20 01:18:16;;;;;;;23.80;8.23;;;0.70;99.90;;;;;;5088634;28;20041;-82
2023/01/20 01:20:43;;;;;;;30.77;9.88;;;0.70;99.90;;;;;;5038571;28;20048;-80
2023/01/20 01:23:10;;;;;;;26.25;9.32;;;0.70;99.90;;;;;;5055579;28;20053;-80
2023/01/20 01:25:39;;;;;;;28.98;10.52;;;0.70;99.90;;;;;;5038320;28;20053;-83
2023/01/20 01:28:04;;;;;;;29.13;10.75;;;0.60;99.90;;;;;;5055530;28;20102;-83
2023/01/20 01:30:30;;;;;;;31.20;9.82;;;0.70;99.90;;;;;;5056107;28;20037;-81
2023/01/20 01:32:56;;;;;;;32.25;10.13;;;0.70;99.90;;;;;;5037061;28;20110;-81
2023/01/20 01:35:22;;;;;;;29.63;10.02;;;0.60;99.90;;;;;;5054404;28;20088;-83
2023/01/20 01:37:47;;;;;;;36.58;10.98;;;0.70;99.90;;;;;;5055861;28;20055;-83
2023/01/20 01:40:13;;;;;;;32.35;10.02;;;0.60;99.90;;;;;;5056338;28;20053;-84
2023/01/20 01:42:39;;;;;;;33.13;10.40;;;0.70;99.90;;;;;;5057347;28;20500;-82
2023/01/20 01:45:11;;;;;;;33.75;9.65;;;0.70;99.90;;;;;;5056403;28;20114;-81
2023/01/20 01:47:45;;;;;;;34.03;10.80;;;0.70;99.90;;;;;;5055765;28;20037;-82
2023/01/20 01:50:15;;;;;;;42.63;12.80;;;0.70;99.90;;;;;;5061678;28;20075;-78
2023/01/20 01:52:46;;;;;;;36.00;11.95;;;0.80;99.90;;;;;;5058822;28;20547;-81
2023/01/20 01:55:15;;;;;;;34.47;10.20;;;0.70;99.90;;;;;;5024955;28;20476;-81
2023/01/20 01:57:41;;;;;;;33.35;10.25;;;0.70;99.90;;;;;;5023200;28;20061;-81
2023/01/20 02:00:07;;;;;;;37.28;10.50;;;0.70;99.90;;;;;;5041789;28;20088;-80
2023/01/20 02:02:34;;;;;;;41.60;12.13;;;0.80;99.90;;;;;;5048050;28;20064;-82
2023/01/20 02:05:01;;;;;;;38.42;10.35;;;0.80;99.90;;;;;;5069985;28;20059;-83
2023/01/20 02:07:27;;;;;;;38.15;11.27;;;0.80;99.90;;;;;;5052080;28;20048;-80
2023/01/20 02:09:52;;;;;;;35.22;9.93;;;0.80;99.90;;;;;;5051861;28;20049;-80
2023/01/20 02:12:20;;;;;;;38.22;11.82;;;0.80;99.90;;;;;;5047478;28;20067;-79
2023/01/20 02:14:52;;;;;;;39.35;12.35;;;0.80;99.90;;;;;;5055147;28;20048;-82
2023/01/20 02:17:43;;;;;;;37.78;11.60;;;0.80;99.90;;;;;;5055185;28;20374;-81
2023/01/20 02:20:35;;;;;;;39.15;10.57;;;0.70;99.90;;;;;;5054240;28;20045;-81
2023/01/20 02:23:30;;;;;;;40.63;10.90;;;0.70;99.90;;;;;;5054619;28;20362;-80
2023/01/20 02:26:24;;;;;;;37.03;11.73;;;0.80;99.90;;;;;;5053746;28;20060;-81
2023/01/20 02:29:22;;;;;;;47.25;12.15;;;0.80;99.90;;;;;;5053986;28;20053;-82
2023/01/20 02:32:22;;;;;;;38.95;11.57;;;0.70;99.90;;;;;;5053005;28;20092;-82
2023/01/20 02:35:08;;;;;;;48.92;12.88;;;0.70;99.90;;;;;;5037047;28;20056;-81
2023/01/20 02:37:56;;;;;;;43.30;14.18;;;0.80;99.90;;;;;;5053786;28;20056;-82
2023/01/20 02:40:30;;;;;;;43.00;12.35;;;0.70;99.90;;;;;;5052628;28;20140;-81
2023/01/20 02:43:10;;;;;;;42.03;12.13;;;0.70;99.90;;;;;;5052317;28;20045;-81
2023/01/20 02:45:47;;;;;;;40.05;11.88;;;0.70;99.90;;;;;;5054228;28;20044;-83
2023/01/20 02:48:13;;;;;;;34.10;9.93;;;0.80;99.90;;;;;;5037102;28;20059;-82
2023/01/20 02:50:58;;;;;;;42.38;11.88;;;0.80;99.90;;;;;;5053488;28;20041;-81
2023/01/20 02:53:28;;;;;;;40.15;11.18;;;0.70;99.90;;;;;;5053936;28;20165;-82
2023/01/20 02:55:54;;;;;;;40.47;10.82;;;0.70;99.90;;;;;;5087521;28;20118;-78
2023/01/20 02:58:26;;;;;;;42.50;12.48;;;0.60;99.90;;;;;;5054687;28;20515;-82
2023/01/20 03:01:00;;;;;;;35.40;9.93;;;0.60;99.90;;;;;;5053139;28;20052;-81
2023/01/20 03:03:33;;;;;;;39.05;10.07;;;0.50;99.90;;;;;;5053461;28;20049;-81
2023/01/20 03:06:02;;;;;;;40.55;12.32;;;0.60;99.90;;;;;;5053882;28;20048;-82
2023/01/20 03:08:31;;;;;;;39.85;11.02;;;0.60;99.90;;;;;;5053000;28;20060;-81
2023/01/20 03:11:03;;;;;;;35.95;10.65;;;0.60;99.90;;;;;;5053248;28;20041;-80
2023/01/20 03:13:43;;;;;;;37.25;10.05;;;0.60;99.90;;;;;;5036600;28;20420;-82
2023/01/20 03:16:14;;;;;;;38.55;10.70;;;0.70;99.90;;;;;;5088099;28;20052;-81
2023/01/20 03:18:40;;;;;;;39.72;11.40;;;0.70;99.90;;;;;;5054727;28;20471;-79
2023/01/20 03:21:08;;;;;;;43.17;11.77;;;0.70;99.90;;;;;;5086774;28;20091;-81
2023/01/20 03:23:37;;;;;;;38.80;10.88;;;0.70;99.90;;;;;;5052040;28;20505;-81
2023/01/20 03:26:07;;;;;;;45.63;12.00;;;0.70;99.90;;;;;;5053167;28;20414;-81
2023/01/20 03:28:33;;;;;;;37.50;9.85;;;0.70;99.90;;;;;;5053936;28;20045;-81
2023/01/20 03:31:04;;;;;;;35.53;9.63;;;0.70;99.90;;;;;;5035690;28;20040;-81
2023/01/20 03:33:30;;;;;;;39.83;10.48;;;0.80;99.90;;;;;;5053402;28;20048;-81
2023/01/20 03:35:56;;;;;;;36.08;9.80;;;0.70;99.90;;;;;;5035376;28;20140;-81
2023/01/20 03:38:22;;;;;;;37.63;10.73;;;0.70;99.90;;;;;;5053041;28;20134;-78
2023/01/20 03:41:00;;;;;;;35.35;10.25;;;0.60;99.90;;;;;;5055872;28;20053;-81
2023/01/20 03:43:33;;;;;;;37.70;10.20;;;0.60;99.90;;;;;;5052745;28;20041;-82
2023/01/20 03:46:10;;;;;;;40.20;10.30;;;0.60;99.90;;;;;;5051986;28;20041;-82
2023/01/20 03:48:52;;;;;;;38.50;9.48;;;0.70;99.90;;;;;;5051816;28;20556;-81
2023/01/20 03:51:42;;;;;;;42.30;10.27;;;0.60;99.90;;;;;;5052452;28;20057;-81
2023/01/20 03:54:13;;;;;;;41.70;9.98;;;0.70;99.90;;;;;;5052072;28;20045;-80
2023/01/20 03:57:02;;;;;;;41.60;10.32;;;0.70;99.90;;;;;;5053165;28;20053;-81
2023/01/20 03:59:34;;;;;;;37.65;10.27;;;0.70;99.90;;;;;;5057251;28;20194;-81
2023/01/20 04:02:05;;;;;;;42.35;10.82;;;0.80;99.90;;;;;;5040274;28;20049;-81
2023/01/20 04:04:35;;;;;;;38.35;10.57;;;0.80;99.90;;;;;;5057404;28;20515;-83
2023/01/20 04:07:04;;;;;;;38.38;10.52;;;0.80;99.90;;;;;;5042857;28;20060;-81
2023/01/20 04:09:34;;;;;;;44.08;10.40;;;0.70;99.90;;;;;;5056258;28;20115;-81
2023/01/20 04:12:00;;;;;;;41.08;10.18;;;0.70;99.90;;;;;;5090237;28;20466;-82
2023/01/20 04:14:26;;;;;;;41.80;11.52;;;0.80;99.90;;;;;;5056224;28;20041;-82
2023/01/20 04:16:57;;;;;;;31.25;8.98;;;0.80;99.90;;;;;;5056537;28;20048;-81
2023/01/20 04:19:24;;;;;;;44.35;11.20;;;0.80;99.90;;;;;;5038995;28;20079;-81
2023/01/20 04:22:13;;;;;;;;;;;0.80;99.90;;;;;;5057243;28;20103;-81
2023/01/20 04:24:53;;;;;;;43.30;11.35;;;0.80;99.90;;;;;;5055072;28;19924;-81
2023/01/20 04:27:19;;;;;;;42.17;11.63;;;0.80;99.90;;;;;;5055395;28;20393;-82
2023/01/20 04:29:44;;;;;;;50.50;12.43;;;0.80;99.90;;;;;;5054757;28;20049;-81
2023/01/20 04:32:11;;;;;;;47.83;12.05;;;0.80;99.90;;;;;;5055687;28;20068;-81
2023/01/20 04:34:37;;;;;;;47.92;12.32;;;0.80;99.90;;;;;;5056300;28;20048;-82
2023/01/20 04:37:03;;;;;;;56.08;14.23;;;0.80;99.90;;;;;;5039684;28;20110;-81
2023/01/20 04:39:29;;;;;;;57.55;15.23;;;0.80;99.90;;;;;;5055684;28;20128;-82
2023/01/20 04:41:55;;;;;;;62.90;15.23;;;0.80;99.90;;;;;;5055156;28;20455;-80
2023/01/20 04:44:20;;;;;;;56.20;13.85;;;0.80;99.90;;;;;;5071518;28;20060;-82
2023/01/20 04:46:46;;;;;;;53.53;13.60;;;1.00;99.90;;;;;;5088792;28;20049;-81
2023/01/20 04:49:13;;;;;;;56.75;15.40;;;0.80;99.90;;;;;;5055067;28;20064;-82
2023/01/20 04:51:38;;;;;;;52.03;13.77;;;0.80;99.90;;;;;;5088839;28;20044;-82
2023/01/20 04:54:05;;;;;;;63.45;17.67;;;0.80;99.90;;;;;;5072479;28;20436;-82
2023/01/20 04:56:31;;;;;;;56.40;15.15;;;0.80;99.90;;;;;;5055565;28;20504;-82
2023/01/20 04:58:57;;;;;;;65.15;16.83;;;0.90;99.90;;;;;;5056002;28;20041;-82
2023/01/20 05:01:23;;;;;;;60.73;15.30;;;0.80;99.90;;;;;;5057234;28;20435;-82
2023/01/20 05:03:48;;;;;;;64.90;15.80;;;0.80;99.90;;;;;;5057198;28;20045;-82
2023/01/20 05:06:14;;;;;;;61.40;15.40;;;0.80;99.90;;;;;;5054858;28;20092;-81
2023/01/20 05:08:40;;;;;;;59.05;15.15;;;0.90;99.90;;;;;;5054615;28;20102;-82
2023/01/20 05:11:06;;;;;;;66.38;14.88;;;0.80;99.90;;;;;;5055573;28;20049;-81
2023/01/20 05:13:37;;;;;;;60.28;14.55;;;0.90;99.90;;;;;;5038321;28;20479;-80
2023/01/20 05:16:03;;;;;;;59.85;15.05;;;0.90;99.90;;;;;;5056362;28;20048;-82
2023/01/20 05:18:29;;;;;;;71.97;17.87;;;0.90;99.90;;;;;;5073107;28;20049;-81
2023/01/20 05:20:55;;;;;;;63.17;16.55;;;0.80;99.90;;;;;;5056848;28;20366;-81
2023/01/20 05:23:20;;;;;;;68.65;17.00;;;0.90;99.90;;;;;;5055868;28;20092;-81
2023/01/20 05:25:51;;;;;;;66.00;17.25;;;0.90;99.90;;;;;;5055702;28;20091;-81
2023/01/20 05:28:17;;;;;;;70.10;17.33;;;0.90;99.90;;;;;;5039812;28;20428;-80
2023/01/20 05:30:42;;;;;;;63.75;17.85;;;0.90;99.90;;;;;;5057408;28;20110;-80
2023/01/20 05:33:09;;;;;;;64.03;16.17;;;0.80;99.90;;;;;;5041233;28;20095;-79
2023/01/20 05:35:37;;;;;;;68.68;17.42;;;0.80;99.90;;;;;;5041925;28;20087;-80
2023/01/20 05:38:02;;;;;;;;;;;0.90;99.90;;;;;;5058545;28;20137;-81
2023/01/20 05:40:28;;;;;;;66.72;14.52;;;0.90;99.90;;;;;;5058586;28;19960;-82
2023/01/20 05:42:58;;;;;;;65.18;16.20;;;0.90;99.90;;;;;;5041833;28;20052;-81
2023/01/20 05:45:24;;;;;;;73.20;17.20;;;0.90;99.90;;;;;;5091896;28;20049;-79
2023/01/20 05:47:57;;;;;;;72.97;17.08;;;0.90;99.90;;;;;;5055923;28;20108;-80
2023/01/20 05:50:24;;;;;;;77.43;17.58;;;0.90;99.90;;;;;;5090814;28;20138;-81
2023/01/20 05:52:51;;;;;;;75.10;18.33;;;0.90;99.90;;;;;;5057893;28;20053;-80
2023/01/20 05:55:20;;;;;;;70.70;18.08;;;0.90;99.90;;;;;;5059383;28;20047;-80
2023/01/20 05:57:46;;;;;;;81.72;17.80;;;0.90;99.90;;;;;;5061141;28;20094;-80
2023/01/20 06:00:13;;;;;;;81.38;21.20;;;0.90;99.90;;;;;;5059435;28;20048;-80
2023/01/20 06:02:39;;;;;;;;;;;0.90;99.90;;;;;;5059722;28;20416;-79
2023/01/20 06:05:05;;;;;;;84.60;18.95;;;1.00;99.90;;;;;;5059886;28;20015;-81
2023/01/20 06:07:31;;;;;;;74.93;18.13;;;0.90;99.90;;;;;;5042973;28;20135;-78
2023/01/20 06:09:57;;;;;;;77.50;18.58;;;0.90;99.90;;;;;;5062115;28;20052;-80
2023/01/20 06:12:23;;;;;;;85.78;21.70;;;0.90;99.90;;;;;;5061656;28;20432;-79
2023/01/20 06:14:49;;;;;;;80.82;18.88;;;0.90;99.90;;;;;;5060513;28;20048;-79
2023/01/20 06:17:15;;;;;;;79.28;19.20;;;0.90;99.90;;;;;;5042062;28;20048;-78
2023/01/20 06:19:41;;;;;;;85.97;19.85;;;0.90;99.90;;;;;;5042342;28;20261;-78
2023/01/20 06:22:11;;;;;;;85.00;20.38;;;1.00;99.90;;;;;;5058074;28;20049;-80
2023/01/20 06:24:37;;;;;;;99.32;20.90;;;0.90;99.90;;;;;;5056975;28;20158;-81
2023/01/20 06:27:02;;;;;;;82.53;20.88;;;0.90;99.90;;;;;;5057537;28;20080;-83
2023/01/20 06:29:29;;;;;;;89.13;21.85;;;0.90;99.90;;;;;;5057543;28;20099;-80
2023/01/20 06:31:55;;;;;;;97.40;22.23;;;1.00;99.90;;;;;;5057497;28;20098;-80
2023/01/20 06:34:21;;;;;;;93.07;19.95;;;1.00;99.90;;;;;;5056644;28;20077;-80
2023/01/20 06:36:46;;;;;;;89.70;20.48;;;1.00;99.90;;;;;;5058247;28;20049;-80
2023/01/20 06:39:12;;;;;;;89.55;20.75;;;1.00;99.90;;;;;;5056964;28;20079;-80
2023/01/20 06:41:38;;;;;;;88.60;21.67;;;0.90;99.90;;;;;;5037333;28;20049;-81
2023/01/20 06:44:03;;;;;;;87.05;20.73;;;1.00;99.90;;;;;;5038051;28;20090;-81
2023/01/20 06:46:29;;;;;;;93.07;21.67;;;1.00;99.90;;;;;;5055193;28;20064;-81
2023/01/20 06:48:59;;;;;;;85.43;20.10;;;1.00;99.90;;;;;;5056295;28;20451;-80
2023/01/20 06:51:26;;;;;;;86.22;20.42;;;1.10;99.90;;;;;;5040247;28;20114;-80
2023/01/20 06:53:52;;;;;;;88.82;20.23;;;1.00;99.90;;;;;;5089676;28;20416;-80
2023/01/20 06:56:18;;;;;;;87.95;21.58;;;1.00;99.90;;;;;;5056487;28;20072;-79
2023/01/20 06:58:44;;;;;;;90.88;22.08;;;1.00;99.90;;;;;;5074455;28;20045;-80
2023/01/20 07:01:17;;;;;;;91.38;21.80;;;1.00;99.90;;;;;;5059015;28;20049;-80
2023/01/20 07:03:43;;;;;;;105.38;25.67;;;1.00;99.90;;;;;;5090896;28;20102;-80
2023/01/20 07:06:15;;;;;;;89.50;22.17;;;1.10;99.90;;;;;;5024289;28;20053;-80
2023/01/20 07:08:42;;;;;;;96.07;24.05;;;1.00;99.90;;;;;;5075418;28;20318;-79
2023/01/20 07:11:08;;;;;;;86.22;19.20;;;1.00;99.90;;;;;;5040956;28;20044;-80
2023/01/20 07:13:34;;;;;;;80.60;19.05;;;1.00;99.90;;;;;;5062483;28;20053;-79
2023/01/20 07:16:00;;;;;;;94.70;21.90;;;1.00;99.90;;;;;;5055419;28;20063;-81
2023/01/20 07:18:26;;;;;;;84.28;20.48;;;0.90;99.90;;;;;;5056751;28;20052;-79
2023/01/20 07:20:55;;;;;;;88.50;20.38;;;1.00;99.90;;;;;;5088125;28;20041;-81
2023/01/20 07:23:23;;;;;;;100.78;22.50;;;1.00;99.90;;;;;;5054712;28;20076;-80
2023/01/20 07:26:03;;;;;;;96.30;21.38;;;1.00;99.90;;;;;;5056161;28;20053;-80
2023/01/20 07:28:30;;;;;;;113.38;25.63;;;1.00;99.90;;;;;;5056640;28;20040;-79
2023/01/20 07:31:07;;;;;;;;;;;0.90;99.90;;;;;;5057854;28;20043;-79
2023/01/20 07:33:33;;;;;;;91.72;21.35;;;0.90;99.90;;;;;;5058184;28;20334;-79
2023/01/20 07:36:00;;;;;;;92.53;23.00;;;1.10;99.90;;;;;;5060008;28;20124;-81
2023/01/20 07:38:25;;;;;;;94.38;21.27;;;1.00;99.90;;;;;;5057629;28;20056;-79
2023/01/20 07:40:51;;;;;;;91.45;20.73;;;1.00;99.90;;;;;;5058483;28;20378;-79
2023/01/20 07:43:17;;;;;;;102.28;22.67;;;1.00;99.90;;;;;;5058552;28;20496;-78
2023/01/20 07:45:42;;;;;;;96.38;21.20;;;1.00;99.90;;;;;;5058775;28;20106;-80
2023/01/20 07:48:08;;;;;;;102.65;25.13;;;1.10;99.90;;;;;;5057937;28;20052;-80
2023/01/20 07:50:35;;;;;;;89.82;19.88;;;1.00;99.90;;;;;;5091108;28;20056;-76
2023/01/20 07:53:01;;;;;;;96.95;22.05;;;1.10;99.90;;;;;;5040748;28;20052;-79
2023/01/20 07:55:27;;;;;;;100.60;21.38;;;1.00;99.90;;;;;;5058319;28;20052;-80
2023/01/20 07:57:53;;;;;;;106.25;23.95;;;1.00;99.90;;;;;;5057521;28;20441;-80
2023/01/20 08:00:19;;;;;;;108.10;24.10;;;1.00;99.90;;;;;;5058072;28;20505;-79
2023/01/20 08:02:45;;;;;;;117.25;24.75;;;1.00;99.90;;;;;;5058267;28;20048;-80
2023/01/20 08:05:11;;;;;;;107.80;24.55;;;1.00;99.90;;;;;;5058523;28;20041;-80
2023/01/20 08:07:37;;;;;;;100.78;24.80;;;1.00;99.90;;;;;;5041145;28;20053;-77
2023/01/20 08:10:03;;;;;;;106.50;25.25;;;1.00;99.90;;;;;;5058575;28;20067;-79
2023/01/20 08:12:29;;;;;;;102.15;23.33;;;1.10;99.90;;;;;;5056258;28;20041;-80
2023/01/20 08:14:55;;;;;;;106.95;22.10;;;1.10;99.90;;;;;;5058088;28;20374;-80
2023/01/20 08:17:21;;;;;;;111.95;24.70;;;1.10;99.90;;;;;;5057586;28;20482;-79
2023/01/20 08:19:47;;;;;;;111.37;25.50;;;1.10;99.90;;;;;;5056943;28;20048;-81
2023/01/20 08:22:13;;;;;;;134.48;28.10;;;1.10;99.90;;;;;;5059173;28;20037;-79
2023/01/20 08:24:39;;;;;;;130.30;27.75;;;1.10;99.90;;;;;;5057718;28;20075;-77
2023/01/20 08:27:04;;;;;;;116.55;24.33;;;1.10;99.90;;;;;;5040915;28;20059;-81
2023/01/20 08:29:32;;;;;;;105.05;25.75;;;1.20;99.90;;;;;;5089900;28;20080;-81
2023/01/20 08:32:01;;;;;;;123.32;26.40;;;1.20;99.90;;;;;;5056923;28;20053;-80
2023/01/20 08:34:27;;;;;;;114.28;25.38;;;1.20;99.90;;;;;;5056745;28;20077;-81
2023/01/20 08:36:56;;;;;;;127.45;27.55;;;1.20;99.90;;;;;;5090444;28;20061;-80
2023/01/20 08:39:22;;;;;;;123.88;25.35;;;1.20;99.90;;;;;;5056510;28;20124;-80
2023/01/20 08:41:49;;;;;;;125.85;26.23;;;1.20;99.90;;;;;;5055473;28;20041;-80
2023/01/20 08:44:16;;;;;;;108.82;25.35;;;1.20;99.90;;;;;;5056373;28;20060;-79
2023/01/20 08:46:43;;;;;;;134.60;29.80;;;1.20;99.90;;;;;;5055593;28;20049;-78
2023/01/20 08:49:12;;;;;;;121.57;27.08;;;1.20;99.90;;;;;;5055915;28;20056;-80
2023/01/20 08:51:38;;;;;;;119.28;24.77;;;1.20;99.90;;;;;;5056205;28;20037;-81
2023/01/20 08:54:04;;;;;;;112.78;23.38;;;1.20;99.90;;;;;;5055707;28;20056;-80
2023/01/20 08:56:30;;;;;;;115.50;25.08;;;1.30;99.90;;;;;;5057492;28;20408;-80
2023/01/20 08:58:57;;;;;;;99.93;21.35;;;1.30;99.90;;;;;;5040047;28;20044;-82
2023/01/20 09:01:26;;;;;;;118.05;23.58;;;1.30;99.90;;;;;;5057695;28;20091;-81
2023/01/20 09:03:53;;;;;;;107.43;24.05;;;1.40;99.90;;;;;;5059801;28;20127;-80
2023/01/20 09:06:20;;;;;;;114.53;24.17;;;1.30;99.90;;;;;;5059551;28;20053;-79
2023/01/20 09:08:47;;;;;;;;;;;1.30;99.90;;;;;;5059354;28;20041;-78
2023/01/20 09:11:17;;;;;;;102.95;21.48;;;1.30;99.90;;;;;;5058921;28;19928;-79
2023/01/20 09:13:42;;;;;;;95.50;20.33;;;1.30;99.90;;;;;;5058525;28;20187;-80
2023/01/20 09:16:11;;;;;;;108.32;23.80;;;1.40;99.90;;;;;;5057330;28;20088;-80
2023/01/20 09:18:37;;;;;;;103.40;24.58;;;1.30;99.90;;;;;;5059025;28;20076;-80
2023/01/20 09:21:06;;;;;;;96.53;20.98;;;1.30;99.90;;;;;;5063663;28;20049;-80
2023/01/20 09:23:34;;;;;;;86.15;21.00;;;1.40;99.90;;;;;;5063782;28;20083;-81
2023/01/20 09:26:00;;;;;;;;;;;1.40;99.90;;;;;;5065163;28;20053;-80
2023/01/20 09:28:26;;;;;;;95.93;18.88;;;1.40;99.90;;;;;;5061920;28;20316;-80
2023/01/20 09:30:59;;;;;;;93.68;21.00;;;1.50;99.90;;;;;;5058801;28;20057;-81
2023/01/20 09:33:24;;;;;;;87.40;19.90;;;1.50;99.90;;;;;;5055735;28;20037;-76
2023/01/20 09:35:54;;;;;;;107.07;23.77;;;1.60;99.90;;;;;;5054860;28;20445;-76
2023/01/20 09:44:28;;;;;;;106.28;22.95;;;1.60;99.90;;;;;;5089892;28;20051;-79
2023/01/20 09:47:20;;;;;;;98.15;21.88;;;1.70;99.90;;;;;;5057264;28;20048;-81
2023/01/20 09:55:41;;;;;;;95.85;23.73;;;1.80;99.90;;;;;;5060059;28;20057;-82
2023/01/20 09:58:07;;;;;;;97.63;21.00;;;1.80;99.90;;;;;;5058326;28;20049;-82
2023/01/20 10:00:34;;;;;;;106.45;22.55;;;1.90;99.90;;;;;;5056980;28;20485;-79
2023/01/20 10:03:08;;;;;;;;;;;1.90;99.90;;;;;;5056454;28;20045;-81
2023/01/20 10:05:40;;;;;;;105.40;20.83;;;1.90;99.90;;;;;;5058098;28;19968;-81
2023/01/20 10:08:10;;;;;;;93.70;20.75;;;1.90;99.90;;;;;;5057350;28;20114;-80
2023/01/20 10:10:56;;;;;;;96.95;22.05;;;1.80;99.90;;;;;;5088460;28;20124;-77
2023/01/20 10:13:31;;;;;;;95.25;20.02;;;1.80;99.90;;;;;;5092273;28;20053;-78
2023/01/20 10:16:01;;;;;;;103.90;23.08;;;1.80;99.90;;;;;;5069847;28;20079;-81
2023/01/20 10:18:46;;;;;;;93.22;19.27;;;1.80;99.90;;;;;;5074535;28;20088;-77
2023/01/20 10:21:25;;;;;;;104.00;21.92;;;1.80;99.90;;;;;;5106722;28;20063;-78
2023/01/20 10:23:56;;;;;;;105.35;21.58;;;1.80;99.90;;;;;;5105517;28;20048;-80
2023/01/20 10:26:37;;;;;;;102.63;22.23;;;1.90;99.90;;;;;;5073670;28;20086;-82
2023/01/20 10:29:06;;;;;;;95.88;19.80;;;1.90;99.90;;;;;;5069042;28;20053;-80
2023/01/20 10:31:36;;;;;;;103.05;20.73;;;1.80;99.90;;;;;;5063570;28;20049;-78
2023/01/20 10:34:11;;;;;;;111.35;22.40;;;1.80;99.90;;;;;;5060544;28;20052;-81
2023/01/20 10:36:42;;;;;;;111.43;24.65;;;1.80;99.90;;;;;;5041514;28;20052;-81
2023/01/20 10:39:33;;;;;;;90.47;19.80;;;1.70;99.90;;;;;;5057376;28;20193;-79
2023/01/20 10:42:08;;;;;;;106.20;21.30;;;1.80;99.90;;;;;;5044947;28;20073;-78
2023/01/20 10:44:35;;;;;;;91.30;18.80;;;1.80;99.90;;;;;;5063976;28;20180;-80
2023/01/20 10:47:24;;;;;;;83.15;19.52;;;1.90;99.90;;;;;;5064008;28;20045;-80
2023/01/20 10:50:11;;;;;;;102.97;22.00;;;1.90;99.90;;;;;;5066451;28;20049;-80
2023/01/20 10:52:37;;;;;;;;;;;1.80;99.90;;;;;;5062854;28;20053;-81
2023/01/20 10:55:30;;;;;;;95.13;20.17;;;1.70;99.90;;;;;;5092085;28;20023;-81
2023/01/20 10:58:02;;;;;;;110.13;21.52;;;1.80;99.90;;;;;;5058840;28;20056;-80
2023/01/20 11:00:30;;;;;;;94.57;21.05;;;1.80;99.90;;;;;;5039572;28;20052;-79
2023/01/20 11:02:58;;;;;;;105.28;21.15;;;1.70;99.90;;;;;;5056418;28;20049;-80
2023/01/20 11:05:32;;;;;;;101.85;22.05;;;1.80;99.90;;;;;;5056964;28;20041;-79
2023/01/20 11:08:00;;;;;;;106.88;21.20;;;1.80;99.90;;;;;;5060902;28;20059;-80
2023/01/20 11:10:28;;;;;;;92.47;19.45;;;1.80;99.90;;;;;;5061237;28;20051;-80
2023/01/20 11:12:58;;;;;;;102.85;21.95;;;1.80;99.90;;;;;;5093510;28;20110;-79
2023/01/20 11:15:38;;;;;;;104.85;22.30;;;1.90;99.90;;;;;;5059281;28;20053;-81
2023/01/20 11:18:15;;;;;;;66.28;15.75;;;1.90;99.90;;;;;;5059421;28;20055;-79
2023/01/20 11:21:04;;;;;;;84.03;17.95;;;1.90;99.90;;;;;;5058641;28;20044;-80
2023/01/20 11:23:38;;;;;;;86.82;18.40;;;1.90;99.90;;;;;;5059205;28;20049;-83
2023/01/20 11:26:21;;;;;;;89.30;19.60;;;2.00;99.90;;;;;;5059399;28;20053;-79
2023/01/20 11:29:08;;;;;;;93.30;17.48;;;1.90;99.90;;;;;;5059919;28;20053;-81
2023/01/20 11:31:48;;;;;;;70.75;16.88;;;2.00;99.90;;;;;;5058737;28;20085;-85
2023/01/20 11:34:47;;;;;;;77.80;18.08;;;2.10;99.90;;;;;;5093527;28;20134;-81
2023/01/20 11:37:26;;;;;;;79.30;18.23;;;2.00;99.90;;;;;;5079720;28;20060;-81
2023/01/20 11:39:56;;;;;;;69.07;14.60;;;2.00;99.90;;;;;;5061365;28;20497;-83
2023/01/20 11:42:24;;;;;;;68.13;14.85;;;2.10;99.90;;;;;;5044174;28;20037;-83
2023/01/20 11:44:53;;;;;;;86.63;18.63;;;2.10;99.90;;;;;;5062434;28;20052;-77
2023/01/20 11:47:22;;;;;;;74.90;15.48;;;2.00;99.90;;;;;;5062701;28;20067;-79
2023/01/20 11:50:08;;;;;;;70.82;16.35;;;2.10;99.90;;;;;;5062351;28;20101;-81
2023/01/20 11:52:46;;;;;;;82.13;16.40;;;2.10;99.90;;;;;;5052106;28;20053;-81
2023/01/20 11:55:11;;;;;;;74.72;15.93;;;2.10;99.90;;;;;;5059088;28;20106;-81
2023/01/20 11:58:00;;;;;;;85.07;19.08;;;2.10;99.90;;;;;;5060320;28;20056;-80
2023/01/20 12:00:26;;;;;;;86.20;20.35;;;2.20;99.90;;;;;;5076215;28;20055;-80
2023/01/20 12:03:36;;;;;;;85.85;17.98;;;2.10;99.90;;;;;;5060322;28;20064;-81
2023/01/20 12:06:26;;;;;;;83.25;17.67;;;2.10;99.90;;;;;;5057961;28;20490;-82
2023/01/20 12:09:11;;;;;;;81.28;18.55;;;2.10;99.90;;;;;;5058702;28;20041;-80
2023/01/20 12:11:44;;;;;;;94.50;21.02;;;2.10;99.90;;;;;;5059726;28;20056;-81
2023/01/20 12:14:27;;;;;;;92.13;19.52;;;2.10;99.90;;;;;;5060088;28;20088;-79
2023/01/20 12:17:09;;;;;;;91.15;20.40;;;2.10;99.90;;;;;;5058463;28;20049;-84
2023/01/20 12:19:56;;;;;;;89.45;18.70;;;2.20;99.90;;;;;;5059029;28;20081;-80
2023/01/20 12:22:34;;;;;;;72.80;15.70;;;2.20;99.90;;;;;;5064307;28;20105;-83
2023/01/20 12:25:13;;;;;;;92.95;18.52;;;2.20;99.90;;;;;;5109110;28;20033;-80
2023/01/20 12:27:50;;;;;;;90.35;20.52;;;2.20;99.90;;;;;;5076587;28;20049;-80
2023/01/20 12:30:49;;;;;;;80.07;17.67;;;2.10;99.90;;;;;;5071960;28;20051;-83
2023/01/20 12:33:31;;;;;;;78.93;17.00;;;2.20;99.90;;;;;;5063355;28;20060;-83
2023/01/20 12:36:15;;;;;;;63.25;14.20;;;2.20;99.90;;;;;;5059224;28;20045;-81
2023/01/20 12:38:53;;;;;;;74.97;16.63;;;2.20;99.90;;;;;;5058334;28;20053;-81
2023/01/20 12:41:35;;;;;;;78.43;16.83;;;2.30;99.90;;;;;;5061435;28;20059;-79
2023/01/20 12:44:10;;;;;;;64.95;16.33;;;2.30;99.90;;;;;;5059370;28;20049;-83
2023/01/20 12:46:50;;;;;;;70.57;15.32;;;2.30;99.90;;;;;;5045188;28;20065;-80
2023/01/20 12:49:41;;;;;;;81.38;17.08;;;2.30;99.90;;;;;;5055804;28;20072;-81
2023/01/20 12:52:18;;;;;;;83.72;18.98;;;2.30;99.90;;;;;;5059841;28;20049;-80
2023/01/20 12:54:49;;;;;;;;;;;2.30;99.90;;;;;;5059791;28;20053;-80
2023/01/20 12:57:47;;;;;;;49.15;11.75;;;2.40;99.90;;;;;;5059739;28;19920;-78
2023/01/20 13:00:24;;;;;;;87.45;17.90;;;2.50;99.90;;;;;;5073961;28;20049;-81
2023/01/20 13:03:21;;;;;;;86.25;17.63;;;2.60;99.90;;;;;;5060576;28;20461;-79
2023/01/20 13:05:56;;;;;;;90.30;18.92;;;2.60;99.90;;;;;;5058162;28;20052;-80
2023/01/20 13:08:36;;;;;;;73.80;15.65;;;2.60;99.90;;;;;;5058280;28;20053;-82
2023/01/20 13:11:08;;;;;;;86.25;20.45;;;2.70;99.90;;;;;;5057740;28;20053;-82